createdAt,value
2023-02-11T00:00:50.391Z,45
2023-02-11T00:01:50.933Z,45.5
2023-02-11T00:02:51.989Z,45.7
2023-02-11T00:03:52.850Z,45.9
2023-02-11T00:04:53.916Z,45.8
2023-02-11T00:05:54.927Z,45.7
2023-02-11T00:06:55.873Z,45.6
2023-02-11T00:07:56.890Z,45.7
2023-02-11T00:08:57.992Z,45.8
2023-02-11T00:09:58.910Z,45.9
2023-02-11T00:10:59.852Z,46
2023-02-11T00:12:00.909Z,46.1
2023-02-11T00:13:01.984Z,46.1
2023-02-11T00:14:03.082Z,46
2023-02-11T00:15:04.059Z,45.8
2023-02-11T00:16:05.206Z,45.7
2023-02-11T00:17:06.111Z,45.8
2023-02-11T00:18:07.134Z,45.8
2023-02-11T00:19:08.051Z,45.8
2023-02-11T00:20:09.074Z,45.6
2023-02-11T00:21:10.129Z,45.4
2023-02-11T00:22:11.200Z,45.2
2023-02-11T00:23:12.112Z,44.9
2023-02-11T00:24:13.074Z,44.8
2023-02-11T00:25:14.011Z,44.6
2023-02-11T00:26:14.932Z,44.6
2023-02-11T00:27:15.924Z,44.4
2023-02-11T00:28:17.190Z,44.5
2023-02-11T00:29:18.189Z,44.3
2023-02-11T00:30:19.038Z,44.3
2023-02-11T00:31:20.319Z,44.4
2023-02-11T00:32:20.892Z,44.3
2023-02-11T00:33:22.090Z,44.2
2023-02-11T00:34:22.918Z,44.2
2023-02-11T00:35:24.131Z,44.3
2023-02-11T00:36:25.029Z,44.1
2023-02-11T00:37:26.168Z,44.2
2023-02-11T00:38:27.146Z,44.4
2023-02-11T00:39:28.165Z,44.5
2023-02-11T00:40:29.091Z,44.7
2023-02-11T00:41:29.884Z,44.8
2023-02-11T00:42:30.887Z,44.8
2023-02-11T00:43:31.946Z,44.8
2023-02-11T00:44:32.985Z,44.8
2023-02-11T00:45:34.166Z,44.8
2023-02-11T00:46:35.222Z,44.6
2023-02-11T00:47:36.087Z,44.7
2023-02-11T00:48:37.065Z,44.5
2023-02-11T00:49:38.138Z,44.4
2023-02-11T00:50:39.052Z,44.4
2023-02-11T00:51:40.093Z,44.3
2023-02-11T00:52:41.082Z,44.2
2023-02-11T00:53:42.051Z,44.4
2023-02-11T00:54:43.123Z,44.6
2023-02-11T00:55:44.104Z,44.6
2023-02-11T00:56:45.122Z,44.6
2023-02-11T00:57:46.255Z,44.5
2023-02-11T00:58:47.172Z,44.6
2023-02-11T00:59:48.093Z,44.6
2023-02-11T01:00:49.144Z,44.5
2023-02-11T01:01:50.178Z,44.4
2023-02-11T01:02:51.127Z,44.5
2023-02-11T01:03:52.154Z,44.4
2023-02-11T01:04:53.085Z,44.6
2023-02-11T01:05:54.041Z,44.7
2023-02-11T01:06:54.874Z,45.1
2023-02-11T01:07:56.086Z,45.2
2023-02-11T01:08:57.193Z,45.3
2023-02-11T01:09:58.128Z,45.4
2023-02-11T01:10:59.117Z,45.4
2023-02-11T01:12:00.153Z,45.1
2023-02-11T01:13:01.129Z,45.1
2023-02-11T01:14:02.088Z,45.4
2023-02-11T01:15:03.170Z,45.4
2023-02-11T01:16:04.221Z,45.2
2023-02-11T01:17:05.092Z,45.2
2023-02-11T01:18:06.170Z,45.1
2023-02-11T01:19:07.193Z,45.2
2023-02-11T01:20:08.177Z,45.2
2023-02-11T01:21:09.215Z,44.7
2023-02-11T01:22:10.105Z,44.9
2023-02-11T01:23:11.073Z,44.7
2023-02-11T01:24:12.213Z,44.7
2023-02-11T01:25:13.171Z,44.8
2023-02-11T01:26:14.126Z,44.6
2023-02-11T01:27:14.970Z,44.6
2023-02-11T01:28:16.099Z,44.6
2023-02-11T01:29:17.110Z,44.4
2023-02-11T01:30:18.138Z,44.6
2023-02-11T01:31:19.244Z,44.6
2023-02-11T01:32:20.238Z,44.6
2023-02-11T01:33:21.231Z,45
2023-02-11T01:34:22.150Z,45.1
2023-02-11T01:35:23.107Z,45.1
2023-02-11T01:36:24.167Z,45.2
2023-02-11T01:37:25.187Z,45.3
2023-02-11T01:38:26.229Z,45.5
2023-02-11T01:39:27.213Z,45.6
2023-02-11T01:40:28.150Z,45.7
2023-02-11T01:41:29.290Z,45.6
2023-02-11T01:42:30.211Z,45.6
2023-02-11T01:43:31.134Z,45.5
2023-02-11T01:44:32.120Z,45.4
2023-02-11T01:45:33.073Z,45.5
2023-02-11T01:46:34.288Z,44.8
2023-02-11T01:47:35.092Z,45.1
2023-02-11T01:48:36.196Z,45.2
2023-02-11T01:49:37.181Z,45.1
2023-02-11T01:50:38.092Z,45
2023-02-11T01:51:39.117Z,44.8
2023-02-11T01:52:40.090Z,44.8
2023-02-11T01:53:41.152Z,44.9
2023-02-11T01:54:42.173Z,45.3
2023-02-11T01:55:43.171Z,45.6
2023-02-11T01:56:44.111Z,45.7
2023-02-11T01:57:45.170Z,45.8
2023-02-11T01:58:46.232Z,45.7
2023-02-11T01:59:47.176Z,45.6
2023-02-11T02:00:48.250Z,45.5
2023-02-11T02:01:49.125Z,45.3
2023-02-11T02:02:50.172Z,45.2
2023-02-11T02:05:55.176Z,45.6
2023-02-11T02:06:56.050Z,45.5
2023-02-11T02:07:57.076Z,45.4
2023-02-11T02:08:58.187Z,45.2
2023-02-11T02:09:59.158Z,45.4
2023-02-11T02:11:00.029Z,45.7
2023-02-11T02:12:01.039Z,45.7
2023-02-11T02:13:02.016Z,45.5
2023-02-11T02:14:02.958Z,45.6
2023-02-11T02:15:04.021Z,45.6
2023-02-11T02:16:06.682Z,45.6
2023-02-11T02:17:06.018Z,45.3
2023-02-11T02:18:07.007Z,45
2023-02-11T02:19:08.034Z,44.6
2023-02-11T02:20:08.955Z,44.7
2023-02-11T02:21:09.895Z,44.8
2023-02-11T02:22:10.982Z,44.8
2023-02-11T02:23:11.937Z,44.9
2023-02-11T02:24:14.204Z,45.1
2023-02-11T02:25:14.045Z,45.2
2023-02-11T02:26:14.976Z,45.2
2023-02-11T02:27:16.067Z,45.4
2023-02-11T02:28:16.977Z,45.6
2023-02-11T02:29:18.029Z,45.7
2023-02-11T02:30:18.993Z,45.7
2023-02-11T02:31:19.960Z,45.8
2023-02-11T02:32:21.013Z,45.7
2023-02-11T02:33:22.889Z,45.7
2023-02-11T02:34:23.033Z,45.8
2023-02-11T02:35:24.107Z,45.8
2023-02-11T02:36:25.084Z,45.6
2023-02-11T02:37:26.175Z,45.8
2023-02-11T02:38:27.173Z,45.6
2023-02-11T02:39:28.097Z,45.6
2023-02-11T02:40:29.212Z,45.4
2023-02-11T02:41:30.098Z,45.2
2023-02-11T02:42:31.152Z,45.3
2023-02-11T02:43:32.151Z,45.4
2023-02-11T02:44:33.148Z,45.5
2023-02-11T02:45:34.084Z,45
2023-02-11T02:46:35.124Z,45.2
2023-02-11T02:47:36.134Z,45.2
2023-02-11T02:48:37.152Z,45
2023-02-11T02:49:38.124Z,44.8
2023-02-11T02:50:39.199Z,44.8
2023-02-11T02:51:40.235Z,44.8
2023-02-11T02:52:41.166Z,44.7
2023-02-11T02:53:42.114Z,44.5
2023-02-11T02:54:43.242Z,44.4
2023-02-11T02:55:44.176Z,44.4
2023-02-11T02:56:45.235Z,44.5
2023-02-11T02:57:46.184Z,44.6
2023-02-11T02:58:47.418Z,44.7
2023-02-11T02:59:48.113Z,44.6
2023-02-11T03:00:49.195Z,45
2023-02-11T03:01:50.123Z,45.1
2023-02-11T03:02:51.266Z,45.1
2023-02-11T03:03:52.338Z,45.1
2023-02-11T03:04:53.155Z,45.2
2023-02-11T03:05:54.217Z,45.6
2023-02-11T03:06:55.084Z,45.6
2023-02-11T03:07:56.183Z,45.6
2023-02-11T03:08:57.202Z,45.6
2023-02-11T03:09:58.180Z,45.8
2023-02-11T03:10:59.154Z,45.7
2023-02-11T03:12:00.254Z,45.7
2023-02-11T03:13:01.242Z,46
2023-02-11T03:14:02.119Z,46
2023-02-11T03:15:03.247Z,46
2023-02-11T03:16:04.239Z,45.8
2023-02-11T03:17:05.218Z,45.6
2023-02-11T03:18:06.244Z,45.4
2023-02-11T03:19:07.097Z,44.9
2023-02-11T03:20:08.153Z,44.8
2023-02-11T03:21:09.157Z,44.7
2023-02-11T03:22:10.175Z,44.8
2023-02-11T03:23:11.141Z,44.6
2023-02-11T03:24:12.156Z,44.6
2023-02-11T03:25:13.177Z,44.6
2023-02-11T03:26:14.202Z,44.6
2023-02-11T03:27:15.206Z,44.7
2023-02-11T03:28:16.210Z,44.6
2023-02-11T03:29:17.163Z,44.7
2023-02-11T03:30:18.177Z,44.7
2023-02-11T03:31:19.331Z,44.6
2023-02-11T03:32:20.209Z,45
2023-02-11T03:33:21.117Z,45.1
2023-02-11T03:34:22.216Z,45.2
2023-02-11T03:35:23.149Z,45.1
2023-02-11T03:36:24.160Z,45
2023-02-11T03:37:25.157Z,44.7
2023-02-11T03:38:26.211Z,44.6
2023-02-11T03:39:27.179Z,44.6
2023-02-11T03:40:28.237Z,44.7
2023-02-11T03:41:29.156Z,44.6
2023-02-11T03:42:30.138Z,44.6
2023-02-11T03:43:31.135Z,44.7
2023-02-11T03:44:32.136Z,44.5
2023-02-11T03:45:33.234Z,44.3
2023-02-11T03:46:34.116Z,44
2023-02-11T03:47:35.280Z,43.9
2023-02-11T03:48:36.178Z,44.3
2023-02-11T03:49:37.131Z,44.5
2023-02-11T03:50:38.114Z,44.5
2023-02-11T03:51:39.136Z,44.4
2023-02-11T03:52:40.118Z,44.1
2023-02-11T03:53:41.181Z,43.8
2023-02-11T03:54:42.204Z,43.5
2023-02-11T03:55:43.220Z,43.3
2023-02-11T03:56:44.182Z,43.4
2023-02-11T03:57:45.176Z,43.3
2023-02-11T03:58:46.237Z,43.1
2023-02-11T03:59:47.057Z,42.9
2023-02-11T04:00:48.244Z,42.8
2023-02-11T04:01:49.324Z,42.7
2023-02-11T04:02:50.318Z,42.4
2023-02-11T04:03:51.197Z,42.1
2023-02-11T04:04:52.264Z,42.1
2023-02-11T04:05:53.277Z,42.1
2023-02-11T04:06:54.149Z,42
2023-02-11T04:07:55.159Z,42.2
2023-02-11T04:08:56.224Z,42.4
2023-02-11T04:09:57.176Z,42.5
2023-02-11T04:10:58.236Z,42.5
2023-02-11T04:11:59.198Z,42.4
2023-02-11T04:13:00.156Z,42.4
2023-02-11T04:14:01.342Z,42.4
2023-02-11T04:15:02.117Z,42.7
2023-02-11T04:16:03.237Z,43.2
2023-02-11T04:17:04.219Z,43.3
2023-02-11T04:18:05.156Z,43.4
2023-02-11T04:19:06.404Z,43.5
2023-02-11T04:20:08.160Z,43.5
2023-02-11T04:21:09.197Z,43.4
2023-02-11T04:22:10.221Z,43.3
2023-02-11T04:23:11.236Z,43.3
2023-02-11T04:24:12.222Z,43.2
2023-02-11T04:25:13.220Z,43.1
2023-02-11T04:26:14.213Z,43.1
2023-02-11T04:27:15.179Z,43.1
2023-02-11T04:28:16.146Z,43.2
2023-02-11T04:29:17.120Z,43.2
2023-02-11T04:30:18.138Z,43.2
2023-02-11T04:31:19.209Z,43
2023-02-11T04:32:20.172Z,42.8
2023-02-11T04:33:21.237Z,42.8
2023-02-11T04:34:22.246Z,42.7
2023-02-11T04:35:23.148Z,42.7
2023-02-11T04:36:24.165Z,42.5
2023-02-11T04:37:25.222Z,42.6
2023-02-11T04:38:26.270Z,42.6
2023-02-11T04:39:27.247Z,42.7
2023-02-11T04:40:28.159Z,42.8
2023-02-11T04:41:29.161Z,43
2023-02-11T04:42:30.159Z,43.3
2023-02-11T04:43:31.217Z,43.3
2023-02-11T04:44:32.137Z,43.3
2023-02-11T04:45:33.233Z,43.3
2023-02-11T04:46:34.098Z,43.4
2023-02-11T04:47:35.194Z,43.4
2023-02-11T04:48:36.197Z,43.4
2023-02-11T04:49:37.238Z,43.6
2023-02-11T04:50:38.161Z,43.9
2023-02-11T04:51:39.121Z,43.9
2023-02-11T04:52:40.200Z,43.7
2023-02-11T04:53:41.177Z,43.6
2023-02-11T04:54:42.344Z,43.8
2023-02-11T04:55:43.221Z,44.1
2023-02-11T04:56:44.145Z,44.4
2023-02-11T04:57:45.177Z,44.5
2023-02-11T04:58:46.239Z,44.4
2023-02-11T04:59:47.220Z,44.1
2023-02-11T05:00:48.230Z,43.8
2023-02-11T05:01:49.162Z,43.7
2023-02-11T05:02:50.226Z,44
2023-02-11T05:03:51.297Z,44.3
2023-02-11T05:04:52.242Z,44.4
2023-02-11T05:05:53.523Z,44.4
2023-02-11T05:06:55.245Z,44.3
2023-02-11T05:07:55.170Z,44.3
2023-02-11T05:08:56.240Z,44.3
2023-02-11T05:09:57.309Z,44.1
2023-02-11T05:10:58.300Z,44.1
2023-02-11T05:11:59.160Z,43.9
2023-02-11T05:13:00.158Z,44.1
2023-02-11T05:14:01.255Z,44.3
2023-02-11T05:15:02.234Z,44.4
2023-02-11T05:16:03.234Z,44.4
2023-02-11T05:17:04.318Z,44.6
2023-02-11T05:18:05.126Z,44.6
2023-02-11T05:19:06.399Z,44.8
2023-02-11T05:20:07.317Z,44.7
2023-02-11T05:21:08.237Z,44.6
2023-02-11T05:22:09.258Z,44.5
2023-02-11T05:23:10.156Z,44.5
2023-02-11T05:24:11.265Z,44.5
2023-02-11T05:25:12.283Z,44.6
2023-02-11T05:26:13.237Z,44.5
2023-02-11T05:27:14.206Z,44.4
2023-02-11T05:28:15.316Z,44.4
2023-02-11T05:29:16.197Z,44.5
2023-02-11T05:30:17.205Z,44.5
2023-02-11T05:31:18.247Z,44.4
2023-02-11T05:32:19.237Z,44.6
2023-02-11T05:33:20.288Z,44.5
2023-02-11T05:34:21.256Z,44.5
2023-02-11T05:35:22.239Z,44.4
2023-02-11T05:36:23.232Z,44.2
2023-02-11T05:37:24.461Z,44.4
2023-02-11T05:38:25.253Z,44.3
2023-02-11T05:39:26.280Z,44.2
2023-02-11T05:40:27.242Z,43.7
2023-02-11T05:41:28.177Z,43.5
2023-02-11T05:42:29.189Z,43.3
2023-02-11T05:43:30.161Z,43.3
2023-02-11T05:44:31.196Z,43.2
2023-02-11T05:45:32.284Z,43.1
2023-02-11T05:46:33.301Z,43.1
2023-02-11T05:47:34.176Z,43.2
2023-02-11T05:48:35.256Z,43.2
2023-02-11T05:49:36.221Z,43.2
2023-02-11T05:50:37.304Z,43
2023-02-11T05:51:38.206Z,42.8
2023-02-11T05:52:39.218Z,42.9
2023-02-11T05:53:40.276Z,43
2023-02-11T05:54:41.236Z,42.9
2023-02-11T05:55:42.261Z,42.9
2023-02-11T05:56:44.877Z,42.9
2023-02-11T05:57:44.250Z,42.8
2023-02-11T05:58:45.160Z,42.8
2023-02-11T05:59:46.404Z,42.9
2023-02-11T06:00:47.261Z,43
2023-02-11T06:01:48.249Z,43
2023-02-11T06:02:49.282Z,42.8
2023-02-11T06:03:50.278Z,42.8
2023-02-11T06:04:51.313Z,42.7
2023-02-11T06:05:52.580Z,42.6
2023-02-11T06:06:53.217Z,42.7
2023-02-11T06:07:54.202Z,42.9
2023-02-11T06:08:55.197Z,42.9
2023-02-11T06:09:56.305Z,43.1
2023-02-11T06:10:57.270Z,43
2023-02-11T06:11:58.171Z,43
2023-02-11T06:12:59.236Z,42.8
2023-02-11T06:14:00.304Z,42.7
2023-02-11T06:15:01.316Z,42.5
2023-02-11T06:16:02.398Z,42.7
2023-02-11T06:17:03.246Z,42.8
2023-02-11T06:18:04.269Z,42.8
2023-02-11T06:19:05.118Z,42.8
2023-02-11T06:20:06.319Z,42.8
2023-02-11T06:21:07.253Z,42.7
2023-02-11T06:22:08.380Z,42.6
2023-02-11T06:23:09.185Z,42.7
2023-02-11T06:24:10.237Z,42.6
2023-02-11T06:25:11.252Z,42.6
2023-02-11T06:26:12.314Z,42.5
2023-02-11T06:27:13.277Z,42.3
2023-02-11T06:28:14.236Z,41.7
2023-02-11T06:29:15.256Z,42
2023-02-11T06:30:16.277Z,42.1
2023-02-11T06:31:17.286Z,41.9
2023-02-11T06:32:37.237Z,41.7
2023-02-11T06:33:19.278Z,41.5
2023-02-11T06:34:20.279Z,41.6
2023-02-11T06:35:21.277Z,41.5
2023-02-11T06:36:22.256Z,41.4
2023-02-11T06:37:23.165Z,41.8
2023-02-11T06:38:24.283Z,41.3
2023-02-11T06:39:25.400Z,41.5
2023-02-11T06:40:26.347Z,41.4
2023-02-11T06:41:27.213Z,41.7
2023-02-11T06:42:28.202Z,41.8
2023-02-11T06:43:29.191Z,42
2023-02-11T06:44:30.099Z,42.3
2023-02-11T06:45:31.125Z,42.3
2023-02-11T06:46:32.164Z,41.8
2023-02-11T06:47:33.181Z,42.2
2023-02-11T06:48:34.266Z,42.4
2023-02-11T06:49:35.155Z,42.6
2023-02-11T06:50:36.151Z,42.6
2023-02-11T06:51:37.155Z,42.7
2023-02-11T06:52:38.249Z,42.7
2023-02-11T06:53:39.279Z,42.7
2023-02-11T06:54:40.244Z,42.7
2023-02-11T06:55:41.243Z,42.8
2023-02-11T06:56:42.284Z,42.9
2023-02-11T06:57:43.279Z,43
2023-02-11T06:58:44.253Z,43
2023-02-11T06:59:45.218Z,42.8
2023-02-11T07:00:46.332Z,42.3
2023-02-11T07:01:47.285Z,42.8
2023-02-11T07:02:48.211Z,43.1
2023-02-11T07:03:49.238Z,43.2
2023-02-11T07:04:50.161Z,43.1
2023-02-11T07:05:51.541Z,43.1
2023-02-11T07:06:52.230Z,43.2
2023-02-11T07:07:53.226Z,43.3
2023-02-11T07:08:54.180Z,43.3
2023-02-11T07:09:55.158Z,43.4
2023-02-11T07:10:56.183Z,43.3
2023-02-11T07:11:57.211Z,43.3
2023-02-11T07:12:58.876Z,43.2
2023-02-11T07:13:59.302Z,43.5
2023-02-11T07:15:00.226Z,43.6
2023-02-11T07:16:01.134Z,44
2023-02-11T07:17:02.169Z,44.2
2023-02-11T07:18:03.242Z,44.3
2023-02-11T07:19:04.178Z,44.8
2023-02-11T07:20:05.258Z,45.2
2023-02-11T07:21:06.318Z,45.3
2023-02-11T07:22:07.205Z,45.3
2023-02-11T07:23:08.159Z,45.4
2023-02-11T07:24:11.005Z,45.5
2023-02-11T07:25:10.186Z,45.6
2023-02-11T07:26:11.254Z,45.6
2023-02-11T07:27:12.211Z,45.6
2023-02-11T07:28:13.175Z,45.8
2023-02-11T07:29:14.180Z,46.1
2023-02-11T07:30:15.208Z,46.2
2023-02-11T07:31:16.217Z,46.2
2023-02-11T07:32:17.237Z,46.4
2023-02-11T07:33:18.251Z,46.5
2023-02-11T07:34:19.262Z,46.2
2023-02-11T07:35:20.171Z,46.4
2023-02-11T07:36:21.137Z,46.6
2023-02-11T07:37:22.153Z,46.5
2023-02-11T07:38:23.142Z,46.6
2023-02-11T07:39:24.130Z,46.7
2023-02-11T07:40:25.394Z,46.7
2023-02-11T07:41:26.360Z,46.6
2023-02-11T07:42:27.286Z,46.7
2023-02-11T07:43:28.158Z,46.8
2023-02-11T07:44:29.237Z,46.8
2023-02-11T07:45:30.206Z,46.7
2023-02-11T07:46:31.261Z,46.7
2023-02-11T07:47:32.177Z,46.8
2023-02-11T07:48:33.190Z,46.9
2023-02-11T07:49:34.168Z,47.1
2023-02-11T07:50:35.217Z,47.4
2023-02-11T07:51:36.200Z,47.8
2023-02-11T07:52:37.198Z,48.2
2023-02-11T07:53:38.197Z,48.4
2023-02-11T07:54:39.225Z,48.3
2023-02-11T07:55:40.272Z,48.5
2023-02-11T07:56:41.316Z,48.6
2023-02-11T07:57:42.170Z,48.8
2023-02-11T07:58:43.306Z,49.2
2023-02-11T07:59:44.217Z,49.7
2023-02-11T08:00:45.323Z,50
2023-02-11T08:01:46.361Z,50.3
2023-02-11T08:02:47.177Z,50.5
2023-02-11T08:03:48.105Z,50.7
2023-02-11T08:04:49.178Z,50.9
2023-02-11T08:05:50.423Z,51.1
2023-02-11T08:06:51.264Z,50.9
2023-02-11T08:07:52.200Z,50.7
2023-02-11T08:08:53.212Z,50.2
2023-02-11T08:09:54.295Z,49.9
2023-02-11T08:10:55.225Z,50
2023-02-11T08:11:56.179Z,50.5
2023-02-11T08:12:57.234Z,51.3
2023-02-11T08:13:58.295Z,51.1
2023-02-11T08:14:59.238Z,51.6
2023-02-11T08:16:00.215Z,51.8
2023-02-11T08:17:01.314Z,52.4
2023-02-11T08:18:02.182Z,52.5
2023-02-11T08:19:03.234Z,52.7
2023-02-11T08:20:04.249Z,52.7
2023-02-11T08:21:05.178Z,52.6
2023-02-11T08:22:06.208Z,52.5
2023-02-11T08:23:07.147Z,52.6
2023-02-11T08:24:08.181Z,52.9
2023-02-11T08:25:09.232Z,53.3
2023-02-11T08:26:10.477Z,54
2023-02-11T08:27:11.423Z,54.6
2023-02-11T08:28:12.336Z,54.7
2023-02-11T08:29:13.218Z,54.6
2023-02-11T08:30:14.281Z,54.9
2023-02-11T08:31:15.328Z,54.8
2023-02-11T08:32:16.321Z,55
2023-02-11T08:33:17.292Z,55.1
2023-02-11T08:34:18.279Z,55
2023-02-11T08:35:19.299Z,54.7
2023-02-11T08:36:20.312Z,54.3
2023-02-11T08:37:21.261Z,53.9
2023-02-11T08:38:22.184Z,54.1
2023-02-11T08:39:23.254Z,54.3
2023-02-11T08:40:24.275Z,54.4
2023-02-11T08:41:25.482Z,54.4
2023-02-11T08:42:26.232Z,54.3
2023-02-11T08:43:27.261Z,53.7
2023-02-11T08:44:28.231Z,53.5
2023-02-11T08:45:29.381Z,53.4
2023-02-11T08:46:30.224Z,53.5
2023-02-11T08:47:31.371Z,53.7
2023-02-11T08:48:32.237Z,53.8
2023-02-11T08:49:33.191Z,54
2023-02-11T08:50:34.396Z,54.3
2023-02-11T08:51:35.242Z,54.5
2023-02-11T08:52:36.352Z,54.7
2023-02-11T08:53:37.339Z,54.7
2023-02-11T08:54:38.234Z,54.8
2023-02-11T08:55:39.269Z,55.1
2023-02-11T08:56:40.277Z,55.5
2023-02-11T08:57:41.371Z,56.1
2023-02-11T08:58:42.283Z,56.3
2023-02-11T08:59:43.260Z,56.5
2023-02-11T09:00:44.273Z,56.7
2023-02-11T09:01:45.345Z,56.7
2023-02-11T09:02:46.233Z,56.8
2023-02-11T09:03:47.277Z,56.8
2023-02-11T09:04:48.257Z,56.8
2023-02-11T09:05:49.193Z,56.9
2023-02-11T09:06:50.212Z,56.9
2023-02-11T09:07:51.188Z,56.7
2023-02-11T09:08:52.292Z,56.7
2023-02-11T09:09:53.149Z,56.6
2023-02-11T09:10:54.233Z,56.6
2023-02-11T09:11:55.336Z,56.8
2023-02-11T09:12:56.397Z,56.8
2023-02-11T09:13:57.372Z,56.5
2023-02-11T09:14:58.291Z,56.7
2023-02-11T09:15:59.316Z,56.5
2023-02-11T09:17:00.280Z,56.2
2023-02-11T09:18:01.312Z,55.9
2023-02-11T09:19:02.351Z,56.2
2023-02-11T09:20:03.344Z,56.4
2023-02-11T09:21:04.373Z,56.6
2023-02-11T09:22:05.252Z,56.6
2023-02-11T09:23:06.386Z,56.4
2023-02-11T09:24:07.355Z,56.3
2023-02-11T09:25:08.315Z,56.1
2023-02-11T09:26:09.730Z,55.8
2023-02-11T09:27:10.283Z,55.5
2023-02-11T09:28:11.433Z,55.4
2023-02-11T09:29:12.370Z,55.4
2023-02-11T09:30:13.330Z,55.5
2023-02-11T09:31:14.448Z,55.4
2023-02-11T09:32:15.424Z,55.2
2023-02-11T09:33:16.865Z,55.2
2023-02-11T09:34:18.252Z,55.1
2023-02-11T09:35:19.180Z,55.4
2023-02-11T09:36:20.302Z,55.8
2023-02-11T09:37:21.220Z,56
2023-02-11T09:38:22.293Z,56
2023-02-11T09:39:23.237Z,56.5
2023-02-11T09:40:24.213Z,56.6
2023-02-11T09:41:25.519Z,56.5
2023-02-11T09:42:26.255Z,56.3
2023-02-11T09:43:27.123Z,55.8
2023-02-11T09:44:28.190Z,55.6
2023-02-11T09:45:29.267Z,55.8
2023-02-11T09:46:30.439Z,56.1
2023-02-11T09:47:31.301Z,56.2
2023-02-11T09:48:32.222Z,56.4
2023-02-11T09:49:33.324Z,56.6
2023-02-11T09:50:34.309Z,56.7
2023-02-11T09:51:35.314Z,56.5
2023-02-11T09:52:36.296Z,56.4
2023-02-11T09:53:37.455Z,56.2
2023-02-11T09:54:38.296Z,56
2023-02-11T09:55:39.115Z,56.2
2023-02-11T09:56:40.235Z,56.2
2023-02-11T09:57:41.224Z,56.2
2023-02-11T09:58:42.250Z,56.1
2023-02-11T09:59:43.361Z,55.9
2023-02-11T10:00:44.273Z,55.7
2023-02-11T10:01:45.349Z,55.6
2023-02-11T10:02:46.320Z,55.7
2023-02-11T10:03:47.316Z,55.7
2023-02-11T10:04:48.284Z,55.8
2023-02-11T10:05:49.243Z,55.9
2023-02-11T10:06:50.219Z,56.4
2023-02-11T10:07:51.338Z,56.4
2023-02-11T10:08:52.273Z,56.3
2023-02-11T10:09:53.359Z,56
2023-02-11T10:10:54.493Z,55.9
2023-02-11T10:11:55.297Z,55.8
2023-02-11T10:12:56.420Z,55.7
2023-02-11T10:13:57.321Z,55.7
2023-02-11T10:14:58.362Z,55.9
2023-02-11T10:15:59.377Z,56.2
2023-02-11T10:17:00.338Z,56.3
2023-02-11T10:18:01.299Z,56.3
2023-02-11T10:19:02.359Z,56.2
2023-02-11T10:20:03.260Z,55.9
2023-02-11T10:21:04.308Z,55.8
2023-02-11T10:22:05.298Z,55.6
2023-02-11T10:23:06.500Z,55.4
2023-02-11T10:24:07.242Z,55.1
2023-02-11T10:25:08.360Z,54.9
2023-02-11T10:26:09.299Z,54.9
2023-02-11T10:27:10.332Z,54.9
2023-02-11T10:28:11.399Z,54.9
2023-02-11T10:29:12.359Z,54.5
2023-02-11T10:30:13.317Z,54.7
2023-02-11T10:31:14.357Z,54.9
2023-02-11T10:32:15.425Z,55
2023-02-11T10:33:16.365Z,55.4
2023-02-11T10:34:17.283Z,55.6
2023-02-11T10:35:18.250Z,55.7
2023-02-11T10:36:19.182Z,55.7
2023-02-11T10:37:20.383Z,55.4
2023-02-11T10:38:21.343Z,55.4
2023-02-11T10:39:22.279Z,55.9
2023-02-11T10:40:23.361Z,56
2023-02-11T10:41:24.259Z,56
2023-02-11T10:42:25.663Z,56.2
2023-02-11T10:43:27.365Z,56.1
2023-02-11T10:44:28.305Z,56.3
2023-02-11T10:45:29.352Z,56.3
2023-02-11T10:46:30.346Z,56.2
2023-02-11T10:47:31.278Z,56.2
2023-02-11T10:48:32.227Z,56.2
2023-02-11T10:49:33.221Z,56
2023-02-11T10:50:34.258Z,55.9
2023-02-11T10:51:35.324Z,55.6
2023-02-11T10:52:36.340Z,55.4
2023-02-11T10:53:37.341Z,55.3
2023-02-11T10:54:38.358Z,55.2
2023-02-11T10:55:39.332Z,55.4
2023-02-11T10:56:40.163Z,55.9
2023-02-11T10:57:41.379Z,56.8
2023-02-11T10:58:42.327Z,57.8
2023-02-11T10:59:43.261Z,58
2023-02-11T11:00:44.342Z,57.7
2023-02-11T11:01:45.472Z,57.4
2023-02-11T11:02:46.431Z,57.1
2023-02-11T11:03:47.338Z,56.8
2023-02-11T11:04:48.488Z,57.1
2023-02-11T11:05:49.310Z,57.1
2023-02-11T11:06:50.354Z,57.2
2023-02-11T11:07:54.230Z,57.4
2023-02-11T11:08:55.346Z,56.6
2023-02-11T11:09:56.452Z,56.9
2023-02-11T11:10:57.303Z,56.7
2023-02-11T11:11:58.290Z,56.7
2023-02-11T11:13:01.389Z,56.6
2023-02-11T11:14:02.420Z,56.4
2023-02-11T11:15:03.336Z,56.4
2023-02-11T11:16:04.406Z,56.8
2023-02-11T11:17:05.306Z,57.3
2023-02-11T11:18:20.453Z,57.4
2023-02-11T11:19:07.308Z,57.4
2023-02-11T11:20:08.330Z,57.3
2023-02-11T11:21:09.315Z,57.2
2023-02-11T11:22:10.491Z,57.1
2023-02-11T11:23:11.328Z,57
2023-02-11T11:24:12.438Z,56.9
2023-02-11T11:25:13.249Z,56.9
2023-02-11T11:26:15.008Z,57
2023-02-11T11:27:16.359Z,56.8
2023-02-11T11:28:17.387Z,57.3
2023-02-11T11:29:18.276Z,58
2023-02-11T11:30:19.398Z,58.3
2023-02-11T11:31:20.435Z,58.1
2023-02-11T11:32:21.418Z,58.1
2023-02-11T11:33:22.608Z,57.7
2023-02-11T11:34:23.273Z,57.5
2023-02-11T11:35:24.378Z,57.3
2023-02-11T11:36:25.787Z,56.8
2023-02-11T11:37:27.324Z,56.3
2023-02-11T11:38:28.357Z,55.6
2023-02-11T11:39:29.360Z,55.7
2023-02-11T11:40:30.299Z,55.6
2023-02-11T11:41:31.687Z,55.5
2023-02-11T11:42:33.359Z,55.6
2023-02-11T11:43:34.682Z,55.8
2023-02-11T11:44:36.939Z,56.1
2023-02-11T11:45:38.353Z,56.5
2023-02-11T11:46:39.455Z,56.6
2023-02-11T11:47:40.381Z,57
2023-02-11T11:48:41.400Z,57.1
2023-02-11T11:49:42.373Z,57.2
2023-02-11T11:50:43.382Z,57.3
2023-02-11T11:51:44.319Z,57.5
2023-02-11T11:52:45.812Z,57.5
2023-02-11T11:53:47.360Z,57.6
2023-02-11T11:54:48.311Z,57.8
2023-02-11T11:55:49.325Z,57.6
2023-02-11T11:56:50.360Z,57.5
2023-02-11T11:57:51.620Z,57.1
2023-02-11T11:58:53.348Z,57
2023-02-11T11:59:54.410Z,57.1
2023-02-11T12:00:55.300Z,56.9
2023-02-11T12:01:56.428Z,57.1
2023-02-11T12:02:57.328Z,57.2
2023-02-11T12:03:58.380Z,57
2023-02-11T12:04:59.397Z,56.8
2023-02-11T12:06:00.247Z,56.6
2023-02-11T12:07:01.290Z,56.4
2023-02-11T12:08:02.471Z,56.5
2023-02-11T12:09:03.320Z,56.7
2023-02-11T12:10:04.367Z,56.7
2023-02-11T12:11:05.312Z,56.5
2023-02-11T12:12:06.433Z,56.3
2023-02-11T12:13:07.330Z,56.2
2023-02-11T12:14:08.374Z,56.3
2023-02-11T12:15:09.390Z,56.5
2023-02-11T12:16:10.357Z,56.6
2023-02-11T12:17:11.324Z,56.1
2023-02-11T12:18:12.345Z,56.2
2023-02-11T12:19:13.368Z,56.4
2023-02-11T12:20:14.475Z,56.4
2023-02-11T12:21:15.387Z,56.4
2023-02-11T12:22:16.358Z,56.2
2023-02-11T12:23:17.411Z,56.2
2023-02-11T12:24:18.421Z,56.4
2023-02-11T12:25:19.351Z,56.4
2023-02-11T12:26:20.337Z,56.3
2023-02-11T12:27:21.390Z,56.4
2023-02-11T12:28:22.476Z,56.5
2023-02-11T12:29:23.352Z,56.8
2023-02-11T12:30:24.332Z,57
2023-02-11T12:31:25.907Z,57.1
2023-02-11T12:32:27.379Z,57.1
2023-02-11T12:33:28.372Z,57
2023-02-11T12:34:29.370Z,56.9
2023-02-11T12:35:30.382Z,56.7
2023-02-11T12:36:31.333Z,56.5
2023-02-11T12:37:32.609Z,56.3
2023-02-11T12:38:33.353Z,56.3
2023-02-11T12:39:34.382Z,56.3
2023-02-11T12:40:35.385Z,56.3
2023-02-11T12:41:36.648Z,56.3
2023-02-11T12:42:38.314Z,56.2
2023-02-11T12:43:39.396Z,56.2
2023-02-11T12:44:40.281Z,56.2
2023-02-11T12:45:41.502Z,56.3
2023-02-11T12:46:42.330Z,56.4
2023-02-11T12:47:43.377Z,56.5
2023-02-11T12:48:44.377Z,56.3
2023-02-11T12:49:45.195Z,56.6
2023-02-11T12:50:46.722Z,57
2023-02-11T12:51:48.300Z,56.9
2023-02-11T12:52:49.388Z,56.7
2023-02-11T12:53:50.289Z,56.7
2023-02-11T12:54:51.462Z,56.7
2023-02-11T12:55:52.404Z,57.1
2023-02-11T12:56:53.737Z,57.1
2023-02-11T12:57:55.400Z,57
2023-02-11T12:58:56.394Z,57
2023-02-11T12:59:57.375Z,56.9
2023-02-11T13:00:58.479Z,56.8
2023-02-11T13:01:59.428Z,56.6
2023-02-11T13:03:00.349Z,56.5
2023-02-11T13:04:01.432Z,56.4
2023-02-11T13:05:02.477Z,56.4
2023-02-11T13:06:03.417Z,56.5
2023-02-11T13:07:04.475Z,56.5
2023-02-11T13:08:05.404Z,56.7
2023-02-11T13:09:06.418Z,56.9
2023-02-11T13:10:07.478Z,56.7
2023-02-11T13:11:08.367Z,56.7
2023-02-11T13:12:09.474Z,56.1
2023-02-11T13:13:10.375Z,56.6
2023-02-11T13:14:11.456Z,56.6
2023-02-11T13:15:12.298Z,56.6
2023-02-11T13:16:13.568Z,57
2023-02-11T13:17:14.397Z,57.1
2023-02-11T13:18:17.387Z,57.1
2023-02-11T13:19:16.494Z,57.1
2023-02-11T13:20:17.339Z,57.1
2023-02-11T13:21:18.438Z,56.9
2023-02-11T13:22:19.402Z,56.5
2023-02-11T13:23:20.352Z,56.5
2023-02-11T13:24:21.343Z,56.5
2023-02-11T13:25:22.384Z,56.4
2023-02-11T13:26:23.366Z,56.2
2023-02-11T13:27:24.423Z,56.2
2023-02-11T13:28:25.969Z,56.5
2023-02-11T13:29:27.510Z,56.5
2023-02-11T13:30:28.364Z,56.5
2023-02-11T13:31:32.051Z,56.5
2023-02-11T13:32:33.462Z,56.6
2023-02-11T13:33:34.395Z,56.6
2023-02-11T13:34:35.319Z,56.5
2023-02-11T13:35:36.320Z,56.5
2023-02-11T13:36:37.362Z,56.6
2023-02-11T13:37:38.409Z,56.7
2023-02-11T13:38:39.377Z,56.7